sensor_id;sensor_type;location;lat;lon;timestamp;P1;durP1;ratioP1;P2;durP2;ratioP2
49340;SDS011;35209;51.050;13.678;2023-03-01T00:04:39;48.42;;;30.25;;
49340;SDS011;35209;51.050;13.678;2023-03-01T00:09:41;61.40;;;33.53;;
49340;SDS011;35209;51.050;13.678;2023-03-01T00:14:42;58.38;;;32.42;;
49340;SDS011;35209;51.050;13.678;2023-03-01T00:19:44;55.05;;;31.90;;
49340;SDS011;35209;51.050;13.678;2023-03-01T00:24:46;49.67;;;29.83;;
49340;SDS011;35209;51.050;13.678;2023-03-01T00:29:47;52.33;;;30.25;;
49340;SDS011;35209;51.050;13.678;2023-03-01T00:34:49;53.47;;;31.02;;
49340;SDS011;35209;51.050;13.678;2023-03-01T00:39:55;47.13;;;31.50;;
49340;SDS011;35209;51.050;13.678;2023-03-01T00:44:57;49.45;;;30.45;;
49340;SDS011;35209;51.050;13.678;2023-03-01T00:49:58;55.80;;;30.90;;
49340;SDS011;35209;51.050;13.678;2023-03-01T00:55:00;48.47;;;28.45;;
49340;SDS011;35209;51.050;13.678;2023-03-01T01:00:03;49.08;;;29.30;;
49340;SDS011;35209;51.050;13.678;2023-03-01T01:05:07;40.88;;;28.40;;
49340;SDS011;35209;51.050;13.678;2023-03-01T01:10:09;51.10;;;29.70;;
49340;SDS011;35209;51.050;13.678;2023-03-01T01:15:14;45.63;;;30.08;;
49340;SDS011;35209;51.050;13.678;2023-03-01T01:20:17;45.20;;;28.80;;
49340;SDS011;35209;51.050;13.678;2023-03-01T01:25:19;51.85;;;31.35;;
49340;SDS011;35209;51.050;13.678;2023-03-01T01:30:21;42.72;;;29.20;;
49340;SDS011;35209;51.050;13.678;2023-03-01T01:35:23;50.20;;;29.77;;
49340;SDS011;35209;51.050;13.678;2023-03-01T01:40:25;54.15;;;31.77;;
49340;SDS011;35209;51.050;13.678;2023-03-01T01:50:32;51.97;;;30.15;;
49340;SDS011;35209;51.050;13.678;2023-03-01T01:55:41;53.75;;;31.15;;
49340;SDS011;35209;51.050;13.678;2023-03-01T02:00:46;53.57;;;32.73;;
49340;SDS011;35209;51.050;13.678;2023-03-01T02:06:03;54.25;;;31.85;;
49340;SDS011;35209;51.050;13.678;2023-03-01T02:11:12;50.50;;;30.45;;
49340;SDS011;35209;51.050;13.678;2023-03-01T02:16:18;54.05;;;31.50;;
49340;SDS011;35209;51.050;13.678;2023-03-01T02:21:34;56.78;;;31.88;;
49340;SDS011;35209;51.050;13.678;2023-03-01T02:26:46;53.95;;;32.08;;
49340;SDS011;35209;51.050;13.678;2023-03-01T02:31:52;54.13;;;32.08;;
49340;SDS011;35209;51.050;13.678;2023-03-01T02:37:01;54.78;;;32.42;;
49340;SDS011;35209;51.050;13.678;2023-03-01T02:42:05;47.33;;;30.35;;
49340;SDS011;35209;51.050;13.678;2023-03-01T02:47:08;48.20;;;29.73;;
49340;SDS011;35209;51.050;13.678;2023-03-01T02:57:30;57.20;;;31.60;;
49340;SDS011;35209;51.050;13.678;2023-03-01T03:02:34;55.33;;;31.33;;
49340;SDS011;35209;51.050;13.678;2023-03-01T03:07:54;50.03;;;30.33;;
49340;SDS011;35209;51.050;13.678;2023-03-01T03:12:58;47.92;;;29.65;;
49340;SDS011;35209;51.050;13.678;2023-03-01T03:18:03;48.40;;;31.38;;
49340;SDS011;35209;51.050;13.678;2023-03-01T03:23:06;54.85;;;31.88;;
49340;SDS011;35209;51.050;13.678;2023-03-01T03:28:08;51.47;;;31.23;;
49340;SDS011;35209;51.050;13.678;2023-03-01T03:33:12;50.38;;;29.70;;
49340;SDS011;35209;51.050;13.678;2023-03-01T03:38:15;52.85;;;30.25;;
49340;SDS011;35209;51.050;13.678;2023-03-01T03:43:21;54.97;;;31.65;;
49340;SDS011;35209;51.050;13.678;2023-03-01T03:48:24;54.95;;;30.40;;
49340;SDS011;35209;51.050;13.678;2023-03-01T03:53:27;55.95;;;31.05;;
49340;SDS011;35209;51.050;13.678;2023-03-01T03:58:30;58.90;;;32.53;;
49340;SDS011;35209;51.050;13.678;2023-03-01T04:03:32;57.40;;;31.88;;
49340;SDS011;35209;51.050;13.678;2023-03-01T04:08:34;57.30;;;33.97;;
49340;SDS011;35209;51.050;13.678;2023-03-01T04:13:36;52.78;;;30.83;;
49340;SDS011;35209;51.050;13.678;2023-03-01T04:18:37;57.05;;;32.35;;
49340;SDS011;35209;51.050;13.678;2023-03-01T04:23:39;49.50;;;30.50;;
49340;SDS011;35209;51.050;13.678;2023-03-01T04:28:42;56.15;;;32.78;;
49340;SDS011;35209;51.050;13.678;2023-03-01T04:33:47;55.28;;;31.35;;
49340;SDS011;35209;51.050;13.678;2023-03-01T04:38:52;50.03;;;31.50;;
49340;SDS011;35209;51.050;13.678;2023-03-01T04:43:55;58.60;;;33.60;;
49340;SDS011;35209;51.050;13.678;2023-03-01T04:48:56;64.38;;;31.75;;
49340;SDS011;35209;51.050;13.678;2023-03-01T04:53:58;57.72;;;32.75;;
49340;SDS011;35209;51.050;13.678;2023-03-01T04:59:01;53.67;;;30.75;;
49340;SDS011;35209;51.050;13.678;2023-03-01T05:04:06;61.63;;;32.53;;
49340;SDS011;35209;51.050;13.678;2023-03-01T05:14:15;54.85;;;30.77;;
49340;SDS011;35209;51.050;13.678;2023-03-01T05:19:17;57.38;;;32.67;;
49340;SDS011;35209;51.050;13.678;2023-03-01T05:24:24;63.90;;;31.77;;
49340;SDS011;35209;51.050;13.678;2023-03-01T05:29:26;57.33;;;31.27;;
49340;SDS011;35209;51.050;13.678;2023-03-01T05:34:30;53.28;;;31.85;;
49340;SDS011;35209;51.050;13.678;2023-03-01T05:39:34;59.17;;;33.70;;
49340;SDS011;35209;51.050;13.678;2023-03-01T05:44:36;62.70;;;33.88;;
49340;SDS011;35209;51.050;13.678;2023-03-01T05:49:38;60.92;;;34.10;;
49340;SDS011;35209;51.050;13.678;2023-03-01T05:54:40;59.95;;;32.38;;
49340;SDS011;35209;51.050;13.678;2023-03-01T05:59:41;59.33;;;34.08;;
49340;SDS011;35209;51.050;13.678;2023-03-01T06:04:43;61.50;;;33.40;;
49340;SDS011;35209;51.050;13.678;2023-03-01T06:09:45;65.07;;;35.38;;
49340;SDS011;35209;51.050;13.678;2023-03-01T06:14:47;77.10;;;35.70;;
49340;SDS011;35209;51.050;13.678;2023-03-01T06:19:49;63.17;;;35.05;;
49340;SDS011;35209;51.050;13.678;2023-03-01T06:24:50;71.45;;;38.95;;
49340;SDS011;35209;51.050;13.678;2023-03-01T06:29:52;74.95;;;37.05;;
49340;SDS011;35209;51.050;13.678;2023-03-01T06:34:54;58.92;;;35.65;;
49340;SDS011;35209;51.050;13.678;2023-03-01T06:39:56;45.60;;;29.95;;
49340;SDS011;35209;51.050;13.678;2023-03-01T06:44:58;34.90;;;26.95;;
49340;SDS011;35209;51.050;13.678;2023-03-01T06:50:00;27.17;;;23.23;;
49340;SDS011;35209;51.050;13.678;2023-03-01T06:55:03;25.92;;;22.52;;
49340;SDS011;35209;51.050;13.678;2023-03-01T07:00:06;28.60;;;22.10;;
49340;SDS011;35209;51.050;13.678;2023-03-01T07:05:09;30.77;;;23.80;;
49340;SDS011;35209;51.050;13.678;2023-03-01T07:10:11;26.77;;;23.15;;
49340;SDS011;35209;51.050;13.678;2023-03-01T07:15:13;32.53;;;24.25;;
49340;SDS011;35209;51.050;13.678;2023-03-01T07:20:20;34.63;;;26.73;;
49340;SDS011;35209;51.050;13.678;2023-03-01T07:25:26;48.63;;;28.23;;
49340;SDS011;35209;51.050;13.678;2023-03-01T07:30:29;39.60;;;28.02;;
49340;SDS011;35209;51.050;13.678;2023-03-01T07:35:31;42.97;;;29.25;;
49340;SDS011;35209;51.050;13.678;2023-03-01T07:40:35;41.70;;;28.90;;
49340;SDS011;35209;51.050;13.678;2023-03-01T07:45:37;48.25;;;29.35;;
49340;SDS011;35209;51.050;13.678;2023-03-01T07:50:41;44.00;;;27.77;;
49340;SDS011;35209;51.050;13.678;2023-03-01T07:55:43;34.95;;;26.40;;
49340;SDS011;35209;51.050;13.678;2023-03-01T08:00:45;47.28;;;27.95;;
49340;SDS011;35209;51.050;13.678;2023-03-01T08:05:47;43.75;;;28.33;;
49340;SDS011;35209;51.050;13.678;2023-03-01T08:10:48;45.78;;;28.75;;
49340;SDS011;35209;51.050;13.678;2023-03-01T08:15:51;41.75;;;28.73;;
49340;SDS011;35209;51.050;13.678;2023-03-01T08:20:54;48.17;;;29.50;;
49340;SDS011;35209;51.050;13.678;2023-03-01T08:26:02;53.67;;;29.17;;
49340;SDS011;35209;51.050;13.678;2023-03-01T08:31:29;46.00;;;28.70;;
49340;SDS011;35209;51.050;13.678;2023-03-01T08:36:38;57.13;;;31.42;;
49340;SDS011;35209;51.050;13.678;2023-03-01T08:42:03;52.47;;;30.33;;
49340;SDS011;35209;51.050;13.678;2023-03-01T08:47:05;48.92;;;29.67;;
49340;SDS011;35209;51.050;13.678;2023-03-01T08:52:07;55.10;;;30.40;;
49340;SDS011;35209;51.050;13.678;2023-03-01T08:57:10;45.45;;;29.30;;
49340;SDS011;35209;51.050;13.678;2023-03-01T09:02:13;50.58;;;30.67;;
49340;SDS011;35209;51.050;13.678;2023-03-01T09:07:17;50.47;;;28.95;;
49340;SDS011;35209;51.050;13.678;2023-03-01T09:12:22;42.92;;;28.30;;
49340;SDS011;35209;51.050;13.678;2023-03-01T09:17:28;46.33;;;30.38;;
49340;SDS011;35209;51.050;13.678;2023-03-01T09:22:30;46.33;;;29.23;;
49340;SDS011;35209;51.050;13.678;2023-03-01T09:27:34;48.53;;;30.35;;
49340;SDS011;35209;51.050;13.678;2023-03-01T09:32:35;45.70;;;30.20;;
49340;SDS011;35209;51.050;13.678;2023-03-01T09:37:37;43.97;;;29.63;;
49340;SDS011;35209;51.050;13.678;2023-03-01T09:42:44;40.15;;;28.77;;
49340;SDS011;35209;51.050;13.678;2023-03-01T09:47:53;49.05;;;29.90;;
49340;SDS011;35209;51.050;13.678;2023-03-01T09:53:03;40.33;;;28.58;;
49340;SDS011;35209;51.050;13.678;2023-03-01T10:08:50;39.55;;;27.67;;
49340;SDS011;35209;51.050;13.678;2023-03-01T10:14:24;43.28;;;26.55;;
49340;SDS011;35209;51.050;13.678;2023-03-01T10:19:41;42.67;;;27.85;;
49340;SDS011;35209;51.050;13.678;2023-03-01T10:24:45;32.60;;;24.80;;
49340;SDS011;35209;51.050;13.678;2023-03-01T10:29:49;42.33;;;27.48;;
49340;SDS011;35209;51.050;13.678;2023-03-01T10:35:15;32.65;;;25.08;;
49340;SDS011;35209;51.050;13.678;2023-03-01T10:40:18;30.20;;;24.33;;
49340;SDS011;35209;51.050;13.678;2023-03-01T10:50:31;30.67;;;23.73;;
49340;SDS011;35209;51.050;13.678;2023-03-01T11:00:45;26.17;;;21.65;;
49340;SDS011;35209;51.050;13.678;2023-03-01T11:11:14;24.60;;;22.10;;
49340;SDS011;35209;51.050;13.678;2023-03-01T11:16:22;25.58;;;22.92;;
49340;SDS011;35209;51.050;13.678;2023-03-01T11:21:28;23.52;;;20.02;;
49340;SDS011;35209;51.050;13.678;2023-03-01T11:26:34;24.38;;;20.55;;
49340;SDS011;35209;51.050;13.678;2023-03-01T11:31:40;25.58;;;20.33;;
49340;SDS011;35209;51.050;13.678;2023-03-01T11:36:59;28.13;;;19.48;;
49340;SDS011;35209;51.050;13.678;2023-03-01T11:42:10;19.15;;;17.20;;
49340;SDS011;35209;51.050;13.678;2023-03-01T12:08:47;14.93;;;13.20;;
49340;SDS011;35209;51.050;13.678;2023-03-01T12:30:24;12.65;;;11.55;;
49340;SDS011;35209;51.050;13.678;2023-03-01T12:56:14;15.90;;;14.30;;
49340;SDS011;35209;51.050;13.678;2023-03-01T13:11:44;21.40;;;16.80;;
49340;SDS011;35209;51.050;13.678;2023-03-01T13:16:46;19.02;;;17.23;;
49340;SDS011;35209;51.050;13.678;2023-03-01T13:21:51;18.17;;;16.67;;
49340;SDS011;35209;51.050;13.678;2023-03-01T13:32:19;16.60;;;15.07;;
49340;SDS011;35209;51.050;13.678;2023-03-01T13:37:43;16.40;;;14.85;;
49340;SDS011;35209;51.050;13.678;2023-03-01T13:42:55;16.98;;;15.43;;
49340;SDS011;35209;51.050;13.678;2023-03-01T13:53:17;17.25;;;15.57;;
49340;SDS011;35209;51.050;13.678;2023-03-01T13:58:25;20.27;;;16.13;;
49340;SDS011;35209;51.050;13.678;2023-03-01T14:03:30;15.43;;;14.13;;
49340;SDS011;35209;51.050;13.678;2023-03-01T14:08:33;17.75;;;16.00;;
49340;SDS011;35209;51.050;13.678;2023-03-01T14:19:14;18.60;;;16.80;;
49340;SDS011;35209;51.050;13.678;2023-03-01T14:24:34;17.17;;;15.65;;
49340;SDS011;35209;51.050;13.678;2023-03-01T14:29:39;20.20;;;15.52;;
49340;SDS011;35209;51.050;13.678;2023-03-01T14:34:45;18.05;;;16.25;;
49340;SDS011;35209;51.050;13.678;2023-03-01T14:39:49;17.65;;;16.00;;
49340;SDS011;35209;51.050;13.678;2023-03-01T14:44:52;17.55;;;15.68;;
49340;SDS011;35209;51.050;13.678;2023-03-01T14:49:59;21.63;;;16.65;;
49340;SDS011;35209;51.050;13.678;2023-03-01T14:55:03;19.13;;;17.10;;
49340;SDS011;35209;51.050;13.678;2023-03-01T15:00:10;18.40;;;16.65;;
49340;SDS011;35209;51.050;13.678;2023-03-01T15:05:22;17.70;;;15.93;;
49340;SDS011;35209;51.050;13.678;2023-03-01T15:10:32;17.27;;;15.75;;
49340;SDS011;35209;51.050;13.678;2023-03-01T15:15:37;19.38;;;16.40;;
49340;SDS011;35209;51.050;13.678;2023-03-01T15:20:42;19.40;;;17.50;;
49340;SDS011;35209;51.050;13.678;2023-03-01T15:25:44;18.40;;;16.50;;
49340;SDS011;35209;51.050;13.678;2023-03-01T15:30:51;18.00;;;16.27;;
49340;SDS011;35209;51.050;13.678;2023-03-01T15:35:57;17.20;;;15.65;;
49340;SDS011;35209;51.050;13.678;2023-03-01T15:41:05;17.63;;;16.00;;
49340;SDS011;35209;51.050;13.678;2023-03-01T15:46:33;17.42;;;15.70;;
49340;SDS011;35209;51.050;13.678;2023-03-01T15:51:39;16.50;;;14.85;;
49340;SDS011;35209;51.050;13.678;2023-03-01T15:56:40;15.20;;;13.80;;
49340;SDS011;35209;51.050;13.678;2023-03-01T16:01:42;22.77;;;16.10;;
49340;SDS011;35209;51.050;13.678;2023-03-01T16:06:45;17.27;;;15.68;;
49340;SDS011;35209;51.050;13.678;2023-03-01T16:11:46;17.05;;;15.45;;
49340;SDS011;35209;51.050;13.678;2023-03-01T16:16:49;16.85;;;15.23;;
49340;SDS011;35209;51.050;13.678;2023-03-01T16:21:51;17.50;;;15.80;;
49340;SDS011;35209;51.050;13.678;2023-03-01T16:26:52;14.50;;;13.00;;
49340;SDS011;35209;51.050;13.678;2023-03-01T16:31:54;15.40;;;13.57;;
49340;SDS011;35209;51.050;13.678;2023-03-01T16:36:56;16.05;;;14.75;;
49340;SDS011;35209;51.050;13.678;2023-03-01T16:41:59;16.70;;;15.20;;
49340;SDS011;35209;51.050;13.678;2023-03-01T16:47:01;15.07;;;13.57;;
49340;SDS011;35209;51.050;13.678;2023-03-01T16:52:03;25.05;;;19.20;;
49340;SDS011;35209;51.050;13.678;2023-03-01T16:57:05;16.42;;;14.82;;
49340;SDS011;35209;51.050;13.678;2023-03-01T17:02:09;21.00;;;15.50;;
49340;SDS011;35209;51.050;13.678;2023-03-01T17:07:13;16.38;;;14.77;;
49340;SDS011;35209;51.050;13.678;2023-03-01T17:12:15;23.05;;;15.63;;
49340;SDS011;35209;51.050;13.678;2023-03-01T17:17:18;19.15;;;17.15;;
49340;SDS011;35209;51.050;13.678;2023-03-01T17:22:20;22.17;;;18.10;;
49340;SDS011;35209;51.050;13.678;2023-03-01T17:27:21;28.27;;;20.80;;
49340;SDS011;35209;51.050;13.678;2023-03-01T17:32:25;35.63;;;18.00;;
49340;SDS011;35209;51.050;13.678;2023-03-01T17:37:28;34.08;;;18.58;;
49340;SDS011;35209;51.050;13.678;2023-03-01T17:42:30;33.88;;;18.38;;
49340;SDS011;35209;51.050;13.678;2023-03-01T17:47:31;25.13;;;17.30;;
49340;SDS011;35209;51.050;13.678;2023-03-01T17:52:33;51.67;;;27.95;;
49340;SDS011;35209;51.050;13.678;2023-03-01T17:57:37;45.60;;;25.10;;
49340;SDS011;35209;51.050;13.678;2023-03-01T18:02:41;38.67;;;23.23;;
49340;SDS011;35209;51.050;13.678;2023-03-01T18:07:43;44.10;;;26.23;;
49340;SDS011;35209;51.050;13.678;2023-03-01T18:12:45;46.92;;;27.10;;
49340;SDS011;35209;51.050;13.678;2023-03-01T18:17:47;40.28;;;25.10;;
49340;SDS011;35209;51.050;13.678;2023-03-01T18:22:49;36.55;;;24.48;;
49340;SDS011;35209;51.050;13.678;2023-03-01T18:27:53;44.08;;;28.27;;
49340;SDS011;35209;51.050;13.678;2023-03-01T18:32:54;46.95;;;26.08;;
49340;SDS011;35209;51.050;13.678;2023-03-01T18:37:56;42.90;;;26.23;;
49340;SDS011;35209;51.050;13.678;2023-03-01T18:42:58;75.13;;;34.30;;
49340;SDS011;35209;51.050;13.678;2023-03-01T18:48:00;60.95;;;32.35;;
49340;SDS011;35209;51.050;13.678;2023-03-01T18:53:02;74.53;;;35.10;;
49340;SDS011;35209;51.050;13.678;2023-03-01T18:58:04;74.38;;;34.85;;
49340;SDS011;35209;51.050;13.678;2023-03-01T19:03:06;67.82;;;34.63;;
49340;SDS011;35209;51.050;13.678;2023-03-01T19:08:08;51.85;;;30.35;;
49340;SDS011;35209;51.050;13.678;2023-03-01T19:13:10;53.65;;;30.80;;
49340;SDS011;35209;51.050;13.678;2023-03-01T19:18:11;47.53;;;29.90;;
49340;SDS011;35209;51.050;13.678;2023-03-01T19:23:13;49.47;;;27.70;;
49340;SDS011;35209;51.050;13.678;2023-03-01T19:28:15;49.83;;;27.73;;
49340;SDS011;35209;51.050;13.678;2023-03-01T19:33:17;42.30;;;25.63;;
49340;SDS011;35209;51.050;13.678;2023-03-01T19:38:19;38.70;;;24.52;;
49340;SDS011;35209;51.050;13.678;2023-03-01T19:43:21;25.42;;;22.35;;
49340;SDS011;35209;51.050;13.678;2023-03-01T19:48:24;30.65;;;24.20;;
49340;SDS011;35209;51.050;13.678;2023-03-01T19:53:26;28.73;;;21.88;;
49340;SDS011;35209;51.050;13.678;2023-03-01T19:58:28;29.95;;;23.23;;
49340;SDS011;35209;51.050;13.678;2023-03-01T20:03:34;41.67;;;21.88;;
49340;SDS011;35209;51.050;13.678;2023-03-01T20:08:36;27.92;;;21.48;;
49340;SDS011;35209;51.050;13.678;2023-03-01T20:13:40;30.33;;;21.52;;
49340;SDS011;35209;51.050;13.678;2023-03-01T20:18:42;33.30;;;21.05;;
49340;SDS011;35209;51.050;13.678;2023-03-01T20:23:45;30.42;;;19.65;;
49340;SDS011;35209;51.050;13.678;2023-03-01T20:28:50;34.72;;;19.98;;
49340;SDS011;35209;51.050;13.678;2023-03-01T20:33:55;22.13;;;18.38;;
49340;SDS011;35209;51.050;13.678;2023-03-01T20:38:57;30.55;;;19.40;;
49340;SDS011;35209;51.050;13.678;2023-03-01T20:43:59;24.83;;;19.17;;
49340;SDS011;35209;51.050;13.678;2023-03-01T20:49:02;26.25;;;19.10;;
49340;SDS011;35209;51.050;13.678;2023-03-01T20:54:04;26.25;;;20.15;;
49340;SDS011;35209;51.050;13.678;2023-03-01T20:59:06;23.38;;;20.42;;
49340;SDS011;35209;51.050;13.678;2023-03-01T21:04:10;29.70;;;18.17;;
49340;SDS011;35209;51.050;13.678;2023-03-01T21:09:11;23.50;;;19.38;;
49340;SDS011;35209;51.050;13.678;2023-03-01T21:14:13;22.98;;;18.42;;
49340;SDS011;35209;51.050;13.678;2023-03-01T21:19:15;29.13;;;19.17;;
49340;SDS011;35209;51.050;13.678;2023-03-01T21:24:17;29.02;;;18.55;;
49340;SDS011;35209;51.050;13.678;2023-03-01T21:29:19;25.52;;;18.50;;
49340;SDS011;35209;51.050;13.678;2023-03-01T21:34:20;34.47;;;19.13;;
49340;SDS011;35209;51.050;13.678;2023-03-01T21:39:22;20.92;;;17.40;;
49340;SDS011;35209;51.050;13.678;2023-03-01T21:44:29;25.37;;;18.00;;
49340;SDS011;35209;51.050;13.678;2023-03-01T21:49:31;25.00;;;18.83;;
49340;SDS011;35209;51.050;13.678;2023-03-01T21:54:33;26.50;;;18.55;;
49340;SDS011;35209;51.050;13.678;2023-03-01T21:59:35;31.67;;;19.33;;
49340;SDS011;35209;51.050;13.678;2023-03-01T22:04:37;32.33;;;19.52;;
49340;SDS011;35209;51.050;13.678;2023-03-01T22:09:38;26.77;;;19.60;;
49340;SDS011;35209;51.050;13.678;2023-03-01T22:14:40;26.08;;;20.98;;
49340;SDS011;35209;51.050;13.678;2023-03-01T22:19:44;23.05;;;19.55;;
49340;SDS011;35209;51.050;13.678;2023-03-01T22:24:46;29.63;;;20.92;;
49340;SDS011;35209;51.050;13.678;2023-03-01T22:29:48;30.38;;;21.02;;
49340;SDS011;35209;51.050;13.678;2023-03-01T22:34:49;29.98;;;21.77;;
49340;SDS011;35209;51.050;13.678;2023-03-01T22:39:51;29.95;;;21.33;;
49340;SDS011;35209;51.050;13.678;2023-03-01T22:44:53;29.08;;;20.27;;
49340;SDS011;35209;51.050;13.678;2023-03-01T22:49:55;25.92;;;19.13;;
49340;SDS011;35209;51.050;13.678;2023-03-01T22:54:57;27.10;;;20.40;;
49340;SDS011;35209;51.050;13.678;2023-03-01T22:59:59;24.60;;;20.88;;
49340;SDS011;35209;51.050;13.678;2023-03-01T23:05:00;22.77;;;19.08;;
49340;SDS011;35209;51.050;13.678;2023-03-01T23:10:03;31.42;;;21.42;;
49340;SDS011;35209;51.050;13.678;2023-03-01T23:15:06;27.10;;;20.50;;
49340;SDS011;35209;51.050;13.678;2023-03-01T23:20:08;24.08;;;20.73;;
49340;SDS011;35209;51.050;13.678;2023-03-01T23:25:11;28.52;;;21.63;;
49340;SDS011;35209;51.050;13.678;2023-03-01T23:30:13;32.67;;;21.55;;
49340;SDS011;35209;51.050;13.678;2023-03-01T23:35:15;25.95;;;20.63;;
49340;SDS011;35209;51.050;13.678;2023-03-01T23:40:17;35.10;;;21.08;;
49340;SDS011;35209;51.050;13.678;2023-03-01T23:45:20;35.33;;;22.38;;
49340;SDS011;35209;51.050;13.678;2023-03-01T23:50:22;26.75;;;20.67;;
49340;SDS011;35209;51.050;13.678;2023-03-01T23:55:25;35.78;;;21.00;;
